createdAt,value
2019-01-08T02:34:40.810Z,47.03
2019-01-08T02:37:09.073Z,46.10
2019-01-08T02:39:37.346Z,36.50
2019-01-08T02:42:05.638Z,48.03
2019-01-08T02:44:34.039Z,43.27
2019-01-08T02:47:03.550Z,44.37
2019-01-08T02:49:31.861Z,45.90
2019-01-08T02:52:01.181Z,42.73
2019-01-08T02:54:29.566Z,42.37
2019-01-08T02:56:57.896Z,38.27
2019-01-08T02:59:27.247Z,40.50
2019-01-08T03:01:55.523Z,41.37
2019-01-08T03:04:24.813Z,40.60
2019-01-08T03:06:53.044Z,36.07
2019-01-08T03:09:23.397Z,40.20
2019-01-08T03:11:51.714Z,38.73
2019-01-08T03:14:19.970Z,32.67
2019-01-08T03:16:48.237Z,34.10
2019-01-08T03:19:16.501Z,32.90
2019-01-08T03:21:45.820Z,31.13
2019-01-08T03:24:15.131Z,30.20
2019-01-08T03:26:43.423Z,35.93
2019-01-08T03:29:11.728Z,34.03
2019-01-08T03:31:40.028Z,32.70
2019-01-08T03:34:08.302Z,34.90
2019-01-08T03:36:36.698Z,33.50
2019-01-08T03:39:06.059Z,23.80
2019-01-08T03:41:34.326Z,21.50
2019-01-08T03:44:02.688Z,17.63
2019-01-08T03:46:31.039Z,12.20
2019-01-08T03:48:59.313Z,7.53
2019-01-08T03:51:27.705Z,5.87
2019-01-08T03:53:55.980Z,5.60
2019-01-08T03:56:24.266Z,5.27
2019-01-08T03:58:52.544Z,5.77
2019-01-08T04:01:20.835Z,5.40
2019-01-08T04:03:49.102Z,5.67
2019-01-08T04:06:17.374Z,5.00
2019-01-08T04:08:47.709Z,5.20
2019-01-08T04:11:15.988Z,5.70
2019-01-08T04:13:44.280Z,6.00
2019-01-08T04:16:12.550Z,5.93
2019-01-08T04:18:41.826Z,5.07
2019-01-08T04:21:10.116Z,5.17
2019-01-08T04:23:38.393Z,7.10
2019-01-08T04:26:06.667Z,5.37
2019-01-08T04:28:35.013Z,4.87
2019-01-08T04:31:03.259Z,5.33
2019-01-08T04:33:31.552Z,6.00
2019-01-08T04:36:00.773Z,4.90
2019-01-08T04:38:29.060Z,6.50
2019-01-08T04:40:57.311Z,6.70
2019-01-08T04:43:25.613Z,5.67
2019-01-08T04:45:53.861Z,6.40
2019-01-08T04:48:23.190Z,10.40
2019-01-08T04:50:51.476Z,8.43
2019-01-08T04:53:20.749Z,4.90
2019-01-08T04:55:49.018Z,4.53
2019-01-08T04:58:17.289Z,5.53
2019-01-08T05:00:45.558Z,5.50
2019-01-08T05:03:13.825Z,6.40
2019-01-08T05:05:43.057Z,7.47
2019-01-08T05:08:11.329Z,8.43
2019-01-08T05:10:39.630Z,6.47
2019-01-08T05:13:07.906Z,5.80
2019-01-08T05:15:36.171Z,7.33
2019-01-08T05:18:04.438Z,4.37
2019-01-08T05:20:32.749Z,9.33
2019-01-08T05:23:01.012Z,11.60
2019-01-08T05:25:29.284Z,8.50
2019-01-08T05:27:57.610Z,11.73
2019-01-08T05:30:25.892Z,7.27
2019-01-08T05:32:54.161Z,8.63
2019-01-08T05:35:22.430Z,7.83
2019-01-08T05:37:50.774Z,8.53
2019-01-08T05:40:21.913Z,7.27
2019-01-08T05:42:50.192Z,11.43
2019-01-08T05:45:19.492Z,8.10
2019-01-08T05:47:47.968Z,9.63
2019-01-08T05:50:16.280Z,10.77
2019-01-08T05:52:44.563Z,10.03
2019-01-08T05:55:12.930Z,11.70
2019-01-08T05:57:41.201Z,9.63
2019-01-08T06:00:16.306Z,11.03
2019-01-08T06:02:39.613Z,7.50
2019-01-08T06:05:08.880Z,6.80
2019-01-08T06:07:39.894Z,9.63
2019-01-08T06:10:09.750Z,9.60
2019-01-08T06:12:39.030Z,11.90
2019-01-08T06:15:08.496Z,6.80
2019-01-08T06:17:36.818Z,6.77
2019-01-08T06:20:05.651Z,11.53
2019-01-08T06:22:34.012Z,9.17
2019-01-08T06:25:02.288Z,8.83
2019-01-08T06:27:30.533Z,6.10
2019-01-08T06:29:58.815Z,6.27
2019-01-08T06:32:27.123Z,6.87
2019-01-08T06:34:55.485Z,11.83
2019-01-08T06:37:24.689Z,8.87
2019-01-08T06:39:52.959Z,9.73
2019-01-08T06:42:21.302Z,12.63
2019-01-08T06:44:50.090Z,10.43
2019-01-08T06:47:18.950Z,10.07
2019-01-08T06:49:47.306Z,10.87
2019-01-08T06:52:15.618Z,8.40
2019-01-08T06:54:43.879Z,10.20
2019-01-08T06:57:12.157Z,17.10
2019-01-08T06:59:42.076Z,14.43
2019-01-08T07:02:11.909Z,10.53
2019-01-08T07:04:42.283Z,12.80
2019-01-08T07:07:10.576Z,15.90
2019-01-08T07:09:39.870Z,12.70
2019-01-08T07:12:08.132Z,12.37
2019-01-08T07:14:37.450Z,14.20
2019-01-08T07:17:09.028Z,10.13
2019-01-08T07:19:37.296Z,8.53
2019-01-08T07:22:06.562Z,8.97
2019-01-08T07:24:35.879Z,9.13
2019-01-08T07:27:04.156Z,10.40
2019-01-08T07:29:33.477Z,15.17
2019-01-08T07:32:01.727Z,9.13
2019-01-08T07:34:30.063Z,8.77
2019-01-08T07:36:58.325Z,13.33
2019-01-08T07:39:26.580Z,10.37
2019-01-08T07:41:54.867Z,10.43
2019-01-08T07:44:23.145Z,11.40
2019-01-08T07:46:51.439Z,13.10
2019-01-08T07:49:19.728Z,13.70
2019-01-08T07:51:47.990Z,8.20
2019-01-08T07:54:16.267Z,8.07
2019-01-08T07:56:44.775Z,11.30
2019-01-08T07:59:13.227Z,12.93
2019-01-08T08:01:41.555Z,6.60
2019-01-08T08:04:09.808Z,6.83
2019-01-08T08:06:38.087Z,11.47
2019-01-08T08:09:06.930Z,5.40
2019-01-08T08:11:35.291Z,9.60
2019-01-08T08:14:03.576Z,10.13
2019-01-08T08:16:31.854Z,10.73
2019-01-08T08:19:00.107Z,16.97
2019-01-08T08:21:28.410Z,6.30
2019-01-08T08:23:56.684Z,9.53
2019-01-08T08:26:24.947Z,8.93
2019-01-08T08:28:53.223Z,8.30
2019-01-08T08:31:21.593Z,9.60
2019-01-08T08:33:49.876Z,10.40
2019-01-08T08:36:18.179Z,9.67
2019-01-08T08:38:46.433Z,6.40
2019-01-08T08:41:14.696Z,8.70
2019-01-08T08:43:42.968Z,10.17
2019-01-08T08:46:11.246Z,9.57
2019-01-08T08:48:39.514Z,11.10
2019-01-08T08:51:07.795Z,11.27
2019-01-08T08:53:36.062Z,10.10
2019-01-08T08:56:04.341Z,8.33
2019-01-08T08:58:32.616Z,9.90
2019-01-08T09:01:06.843Z,9.17
2019-01-08T09:03:31.965Z,8.20
2019-01-08T09:06:00.250Z,11.83
2019-01-08T09:08:28.506Z,8.73
2019-01-08T09:10:56.774Z,9.17
2019-01-08T09:13:25.057Z,7.77
2019-01-08T09:15:53.333Z,11.30
2019-01-08T09:18:21.604Z,7.93
2019-01-08T09:20:49.883Z,9.53
2019-01-08T09:23:18.201Z,12.30
2019-01-08T09:25:46.463Z,6.80
2019-01-08T09:28:14.732Z,10.07
2019-01-08T09:30:44.045Z,7.13
2019-01-08T09:33:12.332Z,11.53
2019-01-08T09:35:40.598Z,8.97
2019-01-08T09:38:08.857Z,6.20
2019-01-08T09:40:37.162Z,7.63
2019-01-08T09:43:05.533Z,10.27
2019-01-08T09:45:33.814Z,6.30
2019-01-08T09:48:02.062Z,6.90
2019-01-08T09:50:30.340Z,9.23
2019-01-08T09:52:58.626Z,5.90
2019-01-08T09:55:26.908Z,9.50
2019-01-08T09:57:55.182Z,13.97
2019-01-08T10:00:23.465Z,6.17
2019-01-08T10:02:51.750Z,13.20
2019-01-08T10:05:20.019Z,11.33
2019-01-08T10:07:49.416Z,10.37
2019-01-08T10:10:17.685Z,7.13
2019-01-08T10:12:45.945Z,12.23
2019-01-08T10:15:14.224Z,15.50
2019-01-08T10:17:42.501Z,6.60
2019-01-08T10:20:10.764Z,7.60
2019-01-08T10:22:39.059Z,11.10
2019-01-08T10:25:08.989Z,10.57
2019-01-08T10:27:37.254Z,13.27
2019-01-08T10:30:08.971Z,10.10
2019-01-08T10:32:37.249Z,12.53
2019-01-08T10:35:07.419Z,11.73
2019-01-08T10:37:35.670Z,10.80
2019-01-08T10:40:06.112Z,10.67
2019-01-08T10:42:34.423Z,9.93
2019-01-08T10:45:02.715Z,13.23
2019-01-08T10:47:30.970Z,22.80
2019-01-08T10:49:59.253Z,16.80
2019-01-08T10:52:27.548Z,16.73
2019-01-08T10:54:55.809Z,10.50
2019-01-08T10:57:24.098Z,11.60
2019-01-08T10:59:52.361Z,11.63
2019-01-08T11:02:20.664Z,11.27
2019-01-08T11:04:48.937Z,6.60
2019-01-08T11:07:17.223Z,10.57
2019-01-08T11:09:45.478Z,7.80
2019-01-08T11:12:13.798Z,8.47
2019-01-08T11:14:42.076Z,9.13
2019-01-08T11:17:10.335Z,5.10
2019-01-08T11:19:38.616Z,9.30
2019-01-08T11:22:06.881Z,7.37
2019-01-08T11:24:35.202Z,9.43
2019-01-08T11:27:03.485Z,7.17
2019-01-08T11:29:31.752Z,5.53
2019-01-08T11:32:00.008Z,8.40
2019-01-08T11:34:28.280Z,8.33
2019-01-08T11:36:56.568Z,5.60
2019-01-08T11:39:24.839Z,6.30
2019-01-08T11:41:53.118Z,5.23
2019-01-08T11:44:21.366Z,7.03
2019-01-08T11:46:49.657Z,5.03
2019-01-08T11:49:17.918Z,3.70
2019-01-08T11:51:47.936Z,9.73
2019-01-08T11:54:16.290Z,6.37
2019-01-08T11:56:44.549Z,6.33
2019-01-08T11:59:12.812Z,8.07
2019-01-08T12:01:42.815Z,8.87
2019-01-08T12:04:18.212Z,4.40
2019-01-08T12:06:46.464Z,6.93
2019-01-08T12:09:14.718Z,9.60
2019-01-08T12:11:42.993Z,14.77
2019-01-08T12:14:11.268Z,7.23
2019-01-08T12:16:39.545Z,10.43
2019-01-08T12:19:07.809Z,8.20
2019-01-08T12:21:36.166Z,12.70
2019-01-08T12:24:04.435Z,12.67
2019-01-08T12:26:32.706Z,9.90
2019-01-08T12:29:01.007Z,9.17
2019-01-08T12:31:29.267Z,4.40
2019-01-08T12:33:57.549Z,8.80
2019-01-08T12:36:25.840Z,13.80
2019-01-08T12:38:54.114Z,7.60
2019-01-08T12:41:22.394Z,5.73
2019-01-08T12:43:50.656Z,6.90
2019-01-08T12:46:18.953Z,4.47
2019-01-08T12:48:47.297Z,6.13
2019-01-08T12:51:15.556Z,8.30
2019-01-08T12:53:43.865Z,10.83
2019-01-08T12:56:12.139Z,6.43
2019-01-08T12:58:40.396Z,8.10
2019-01-08T13:01:08.683Z,5.20
2019-01-08T13:03:36.978Z,7.13
2019-01-08T13:06:05.249Z,11.27
2019-01-08T13:08:33.528Z,5.77
2019-01-08T13:11:01.814Z,5.07
2019-01-08T13:13:30.099Z,7.03
2019-01-08T13:15:58.341Z,6.07
2019-01-08T13:18:26.624Z,7.10
2019-01-08T13:20:54.878Z,9.40
2019-01-08T13:23:23.179Z,6.13
2019-01-08T13:25:51.446Z,6.00
2019-01-08T13:28:19.777Z,5.80
2019-01-08T13:30:48.098Z,7.77
2019-01-08T13:33:16.430Z,7.27
2019-01-08T13:35:44.735Z,3.67
2019-01-08T13:38:13.009Z,5.03
2019-01-08T13:40:41.270Z,6.93
2019-01-08T13:43:09.533Z,6.60
2019-01-08T13:45:37.797Z,5.97
2019-01-08T13:48:06.084Z,3.53
2019-01-08T13:50:34.356Z,5.47
2019-01-08T13:53:02.631Z,6.93
2019-01-08T13:55:30.976Z,5.90
2019-01-08T13:57:59.247Z,6.83
2019-01-08T14:00:27.553Z,6.77
2019-01-08T14:02:55.831Z,4.63
2019-01-08T14:05:24.100Z,6.80
2019-01-08T14:07:52.438Z,5.47
2019-01-08T14:10:20.699Z,5.37
2019-01-08T14:12:48.998Z,6.57
2019-01-08T14:15:19.230Z,5.17
2019-01-08T14:17:47.586Z,6.57
2019-01-08T14:20:15.869Z,5.57
2019-01-08T14:22:44.128Z,5.03
2019-01-08T14:25:12.679Z,5.33
2019-01-08T14:27:40.933Z,4.80
2019-01-08T14:30:10.484Z,6.50
2019-01-08T14:32:40.698Z,5.73
2019-01-08T14:35:08.855Z,3.93
2019-01-08T14:37:37.144Z,6.83
2019-01-08T14:40:07.134Z,5.07
2019-01-08T14:42:44.491Z,8.27
2019-01-08T14:45:12.905Z,12.67
2019-01-08T14:47:41.226Z,5.87
2019-01-08T14:50:09.562Z,12.53
2019-01-08T14:52:37.881Z,10.57
2019-01-08T14:55:06.215Z,8.90
2019-01-08T14:57:34.484Z,18.80
2019-01-08T15:00:02.765Z,16.73
2019-01-08T15:02:31.059Z,11.77
2019-01-08T15:04:59.427Z,13.40
2019-01-08T15:07:27.719Z,9.47
2019-01-08T15:09:56.000Z,11.40
2019-01-08T15:12:24.272Z,11.20
2019-01-08T15:14:52.543Z,12.13
2019-01-08T15:17:20.799Z,9.50
2019-01-08T15:19:49.092Z,13.33
2019-01-08T15:22:17.373Z,8.90
2019-01-08T15:24:45.636Z,8.07
2019-01-08T15:27:13.909Z,8.03
2019-01-08T15:29:42.261Z,8.77
2019-01-08T15:32:10.543Z,9.93
2019-01-08T15:34:38.812Z,6.70
2019-01-08T15:37:07.112Z,7.50
2019-01-08T15:39:35.436Z,8.57
2019-01-08T15:42:03.730Z,6.40
2019-01-08T15:44:32.070Z,7.70
2019-01-08T15:47:00.328Z,11.03
2019-01-08T15:49:28.633Z,7.93
2019-01-08T15:52:00.914Z,6.07
2019-01-08T15:54:29.243Z,8.83
2019-01-08T15:57:01.523Z,8.43
2019-01-08T15:59:29.857Z,5.53
2019-01-08T16:01:58.163Z,11.70
2019-01-08T16:04:26.442Z,14.13
2019-01-08T16:06:54.700Z,9.13
2019-01-08T16:09:24.005Z,6.30
2019-01-08T16:11:59.109Z,9.43
2019-01-08T16:14:27.387Z,4.60
2019-01-08T16:16:55.664Z,7.23
2019-01-08T16:19:23.937Z,8.47
2019-01-08T16:21:52.231Z,5.23
2019-01-08T16:24:20.489Z,8.60
2019-01-08T16:26:49.722Z,7.27
2019-01-08T16:29:18.036Z,14.10
2019-01-08T16:31:47.279Z,4.70
2019-01-08T16:34:15.580Z,6.30
2019-01-08T16:36:43.860Z,4.73
2019-01-08T16:39:12.142Z,12.93
2019-01-08T16:41:40.412Z,9.17
2019-01-08T16:44:08.708Z,10.60
2019-01-08T16:46:37.984Z,10.30
2019-01-08T16:49:06.351Z,8.37
2019-01-08T16:51:34.617Z,5.57
2019-01-08T16:54:02.877Z,7.53
2019-01-08T16:56:31.178Z,10.77
2019-01-08T16:58:59.443Z,6.60
2019-01-08T17:01:27.705Z,8.03
2019-01-08T17:03:55.997Z,6.73
2019-01-08T17:06:24.262Z,5.20
2019-01-08T17:08:53.503Z,6.07
2019-01-08T17:11:21.982Z,5.77
2019-01-08T17:13:50.262Z,8.30
2019-01-08T17:16:19.557Z,7.50
2019-01-08T17:18:47.847Z,13.23
2019-01-08T17:21:16.112Z,6.07
2019-01-08T17:23:44.384Z,9.40
2019-01-08T17:26:13.725Z,6.33
2019-01-08T17:28:42.024Z,4.47
2019-01-08T17:31:10.256Z,9.93
2019-01-08T17:33:38.530Z,4.47
2019-01-08T17:36:06.975Z,5.30
2019-01-08T17:38:35.315Z,6.60
2019-01-08T17:41:03.588Z,9.23
2019-01-08T17:43:33.673Z,3.70
2019-01-08T17:46:01.991Z,8.17
2019-01-08T17:48:30.289Z,4.53
2019-01-08T17:50:58.799Z,6.73
2019-01-08T17:53:27.082Z,12.67
2019-01-08T17:55:55.365Z,13.17
2019-01-08T17:58:39.005Z,5.03
2019-01-08T18:01:22.359Z,8.07
2019-01-08T18:03:50.614Z,7.43
2019-01-08T18:06:18.979Z,13.83
2019-01-08T18:08:47.265Z,9.33
2019-01-08T18:11:15.675Z,8.93
2019-01-08T18:13:43.939Z,8.17
2019-01-08T18:16:12.233Z,8.40
2019-01-08T18:18:40.761Z,5.73
2019-01-08T18:21:09.152Z,10.50
2019-01-08T18:23:37.531Z,6.47
2019-01-08T18:26:05.859Z,7.70
2019-01-08T18:28:34.125Z,5.57
2019-01-08T18:31:02.407Z,7.23
2019-01-08T18:33:30.699Z,8.83
2019-01-08T18:35:58.992Z,8.80
2019-01-08T18:38:27.396Z,17.20
2019-01-08T18:40:55.661Z,8.47
2019-01-08T18:43:23.936Z,11.00
2019-01-08T18:45:52.230Z,12.03
2019-01-08T18:48:20.508Z,6.67
2019-01-08T18:50:48.857Z,10.50
2019-01-08T18:53:17.133Z,7.93
2019-01-08T18:55:45.400Z,13.33
2019-01-08T18:58:13.711Z,14.70
2019-01-08T19:00:41.971Z,11.60
2019-01-08T19:03:10.250Z,11.60
2019-01-08T19:05:38.557Z,14.20
2019-01-08T19:08:06.811Z,17.23
2019-01-08T19:10:35.122Z,7.67
2019-01-08T19:13:03.379Z,16.20
2019-01-08T19:15:31.647Z,9.60
2019-01-08T19:17:59.941Z,8.67
2019-01-08T19:20:28.252Z,9.50
2019-01-08T19:22:56.522Z,12.17
2019-01-08T19:25:24.784Z,10.70
2019-01-08T19:27:53.094Z,11.70
2019-01-08T19:30:21.474Z,12.93
2019-01-08T19:32:49.781Z,10.87
2019-01-08T19:35:18.062Z,12.83
2019-01-08T19:37:46.355Z,13.87
2019-01-08T19:40:14.656Z,15.93
2019-01-08T19:42:42.978Z,9.43
2019-01-08T19:45:11.358Z,11.10
2019-01-08T19:47:40.736Z,9.53
2019-01-08T19:50:09.482Z,11.70
2019-01-08T19:52:37.842Z,14.03
2019-01-08T19:55:06.267Z,11.47
2019-01-08T19:57:34.652Z,8.83
2019-01-08T20:00:02.931Z,10.33
2019-01-08T20:02:31.207Z,12.90
2019-01-08T20:04:59.499Z,7.83
2019-01-08T20:07:28.806Z,11.17
2019-01-08T20:09:57.081Z,7.83
2019-01-08T20:12:25.354Z,19.50
2019-01-08T20:14:53.635Z,6.30
2019-01-08T20:17:22.020Z,12.27
2019-01-08T20:19:50.394Z,10.47
2019-01-08T20:22:18.681Z,18.60
2019-01-08T20:24:46.956Z,8.70
2019-01-08T20:27:15.243Z,7.83
2019-01-08T20:29:43.517Z,6.57
2019-01-08T20:32:11.797Z,9.53
2019-01-08T20:34:40.060Z,9.90
2019-01-08T20:37:08.347Z,12.30
2019-01-08T20:39:36.657Z,10.40
2019-01-08T20:42:04.967Z,15.07
2019-01-08T20:44:33.254Z,11.93
2019-01-08T20:47:01.526Z,11.40
2019-01-08T20:49:29.822Z,9.00
2019-01-08T20:51:58.189Z,11.97
2019-01-08T20:54:26.470Z,12.80
2019-01-08T20:56:54.754Z,10.97
2019-01-08T20:59:23.017Z,4.80
2019-01-08T21:01:52.326Z,8.70
2019-01-08T21:04:21.678Z,8.20
2019-01-08T21:06:49.959Z,7.97
2019-01-08T21:09:19.252Z,10.50
2019-01-08T21:11:47.518Z,10.93
2019-01-08T21:14:15.820Z,11.40
2019-01-08T21:16:45.903Z,5.30
2019-01-08T21:19:16.206Z,10.60
2019-01-08T21:21:44.478Z,8.20
2019-01-08T21:24:12.766Z,9.60
2019-01-08T21:26:41.046Z,9.03
2019-01-08T21:29:09.370Z,6.53
2019-01-08T21:31:37.890Z,8.47
2019-01-08T21:34:06.263Z,8.43
2019-01-08T21:36:34.567Z,7.67
2019-01-08T21:39:04.416Z,12.73
2019-01-08T21:41:32.726Z,12.60
2019-01-08T21:44:01.030Z,5.20
2019-01-08T21:46:29.286Z,5.67
2019-01-08T21:48:58.605Z,6.03
2019-01-08T21:51:27.226Z,11.37
2019-01-08T21:53:55.818Z,10.40
2019-01-08T21:56:25.100Z,13.47
2019-01-08T21:58:53.387Z,13.33
2019-01-08T22:01:21.698Z,7.20
2019-01-08T22:03:49.965Z,6.90
2019-01-08T22:06:19.250Z,8.37
2019-01-08T22:08:47.537Z,6.00
2019-01-08T22:11:15.818Z,5.33
2019-01-08T22:13:46.113Z,10.07
2019-01-08T22:16:14.859Z,8.40
2019-01-08T22:18:43.261Z,9.03
2019-01-08T22:21:13.571Z,7.97
2019-01-08T22:23:41.849Z,7.20
2019-01-08T22:26:11.140Z,7.00
2019-01-08T22:28:39.453Z,5.00
2019-01-08T22:31:07.866Z,7.73
2019-01-08T22:33:36.153Z,7.77
2019-01-08T22:36:04.419Z,9.13
2019-01-08T22:38:32.722Z,8.60
2019-01-08T22:41:00.994Z,6.33
2019-01-08T22:43:29.292Z,5.87
2019-01-08T22:45:58.465Z,5.77
2019-01-08T22:48:26.735Z,9.77
2019-01-08T22:50:56.084Z,6.67
2019-01-08T22:53:24.334Z,6.70
2019-01-08T22:55:52.713Z,17.37
2019-01-08T22:58:20.994Z,8.83
2019-01-08T23:00:52.899Z,7.23
2019-01-08T23:03:21.853Z,13.50
2019-01-08T23:05:51.598Z,6.03
2019-01-08T23:08:21.008Z,7.73
2019-01-08T23:10:49.297Z,11.37
2019-01-08T23:13:17.873Z,12.23
2019-01-08T23:15:46.261Z,9.30
2019-01-08T23:18:15.500Z,10.03
2019-01-08T23:20:43.870Z,6.90
2019-01-08T23:23:12.139Z,9.70
2019-01-08T23:25:41.369Z,8.83
2019-01-08T23:28:09.655Z,6.27
2019-01-08T23:30:38.974Z,3.87
2019-01-08T23:33:07.245Z,6.57
2019-01-08T23:35:36.552Z,7.10
2019-01-08T23:38:04.822Z,7.40
2019-01-08T23:40:33.129Z,11.20
2019-01-08T23:43:01.401Z,10.57
2019-01-08T23:45:29.679Z,7.40
2019-01-08T23:47:57.949Z,8.33
2019-01-08T23:50:26.254Z,8.13
2019-01-08T23:52:57.043Z,8.70
2019-01-08T23:55:27.073Z,6.87
2019-01-08T23:57:57.770Z,18.93
